KBBW/BBW METAR and TAF weather

Enter ICAO airport designator
Station Type Date Time Source
KBBW METAR 2018/04/19 12:53 UTC NOAA

KBBW 191253Z AUTO 00000KT 10SM CLR M02/M03 A3042 RMK AO2 SLP319 T10171033


Station Type Date Time Source
KBBW Decoded METAR 2018/04/19 12:53 UTC NOAA

BROKEN BOW MUNICIPAL AIRPORT, NE, United States (KBBW) 41-26N 099-38W
Apr 19, 2018 - 08:53 AM EDT / 2018.04.19 1253 UTC
Wind: Calm:0
Visibility: 10 mile(s):0
Sky conditions: clear
Temperature: 28.9 F (-1.7 C)
Dew Point: 26.1 F (-3.3 C)
Relative Humidity: 88%
Pressure (altimeter): 30.42 in. Hg (1030 hPa)
ob: KBBW 191253Z AUTO 00000KT 10SM CLR M02/M03 A3042 RMK AO2 SLP319 T10171033
cycle: 13

Station Type Date Time Source
KBBW TAF UTC NOAA

Error!


Example: see airport list